FBSKFBMN

Guest
Details From FBSK - SIR SERETSE KHAMA INTL
To FBMN - MAUN
Flight Number -
Tags generated
Created
Modified
Stats Distance 316 nm / 586 km
Max Altitude 34,000 ft / 10,363 m
Waypoints 4
Social Downloads 0
Likes 0
Share VATSIM

Download

Looking for another format? Having issues loading an existing format? Contact us
Advertisement - Login to hide

Notes

Basic altitude profile: - Ascent Rate: 2500ft/min - Ascent Speed: 80kts - Cruise Altitude: 800ft - Cruise Speed: 110kts - Descent Rate: 1500ft/min - Descent Speed: 80kts Options: - Use NATs: yes - Use PACOTS: yes - Use low airways: no - Use high airways: no

Route

FBSK 2300S02500E 2200S02500E FBMN

ID Type Via Altitude Latitude Longitude Leg Dist Tot Dist Heading (true) Name
O FBSK APT - 0 ft / 0 m -24.55523˚ 25.91821˚ - 0 nm - SIR SERETSE KHAMA INTL
2300S02500E LATLON - 34,000 ft / 10,363 m -23.00000˚ 25.00000˚ 106 nm 106 nm 331° / 332° -
2200S02500E LATLON - 31,100 ft / 9,479 m -22.00000˚ 25.00000˚ 60 nm 166 nm 0° / 360° -
O FBMN APT - 0 ft / 0 m -19.97256˚ 23.43108˚ 150 nm 316 nm 324° / 324° MAUN

Altitude Profile

Advertisement - Login to hide

Weather


0- 5 10 15 20 25 30 35+ Temperature / ° C

Clouds and Precipitation
Forecast for 2017-12-14 18:00 UTC. Updated 9 minutes ago

Ground ~20,000 ft ~40,000 ft Winds

FBSK

Details ICAO FBSK (GBE)
Name SIR SERETSE KHAMA INTL
Region Botswana
Timezone Africa/Gaborone (UTC+2.0)
Stats Elevation 3,299 ft / 1,006 m (AMSL)
Location -24.555225° 25.918208°
Runways 1
Magnetic Variation 15.676° W

METAR

FBSK 141300Z 25013G23KT 9999 FEW030 35/M06 Q1013 NOSIG

Decode

TAF

TAF FBSK 140300Z 1406/1512 23010KT CAVOK

Decode

Departure Runways

ID Width Length Bearing (true) Bearing (mag) Surface Threshold Offset Overrun Length
08 148 ft / 45 m 9,849 ft / 3,002 m 61.48° 77.16° Concrete 0 ft / 0 m 197 ft / 60 m
26 148 ft / 45 m 9,849 ft / 3,002 m 241.47° 257.15° Concrete 0 ft / 0 m 197 ft / 60 m

FBMN

Details ICAO FBMN (MUB)
Name MAUN
Region Botswana
Timezone Africa/Gaborone (UTC+2.0)
Stats Elevation 3,093 ft / 943 m (AMSL)
Location -19.972564° 23.431085°
Runways 1
Magnetic Variation 9.255° W

METAR

FBMN 141300Z 23011KT 9999 BKN030 FEW035CB 29/17 Q1012

Decode

TAF

Not found

Destination Runways

ID Width Length Bearing (true) Bearing (mag) Surface Threshold Offset Overrun Length
08 98 ft / 30 m 6,520 ft / 1,987 m 65.89° 75.15° Asphalt 0 ft / 0 m 650 ft / 198 m
26 98 ft / 30 m 6,520 ft / 1,987 m 245.88° 255.14° Asphalt 0 ft / 0 m 200 ft / 61 m

Popular Alternatives